createdAt,value
2023-10-13T00:02:06.599Z,83.32
2023-10-13T00:04:36.912Z,83.42
2023-10-13T00:07:05.595Z,84.01
2023-10-13T00:09:38.807Z,83.96
2023-10-13T00:12:11.145Z,83.82
2023-10-13T00:14:42.071Z,84.43
2023-10-13T00:17:11.783Z,84.75
2023-10-13T00:19:46.612Z,85.44
2023-10-13T00:22:20.505Z,85.76
2023-10-13T00:24:48.085Z,86.08
2023-10-13T00:27:30.806Z,86.65
2023-10-13T00:30:21.392Z,86.71
2023-10-13T00:32:57.758Z,86.57
2023-10-13T00:35:26.590Z,86.09
2023-10-13T00:37:56.444Z,86.29
2023-10-13T00:40:30.951Z,86.35
2023-10-13T00:43:17.921Z,86.21
2023-10-13T00:46:09.102Z,85.96
2023-10-13T00:48:44.559Z,85.85
2023-10-13T00:51:24.023Z,85.99
2023-10-13T00:53:51.780Z,85.59
2023-10-13T00:56:28.243Z,86.22
2023-10-13T00:59:00.368Z,86.31
2023-10-13T01:01:33.925Z,86.26
2023-10-13T01:04:03.505Z,86.46
2023-10-13T01:06:30.868Z,86.12
2023-10-13T01:09:17.835Z,85.90
2023-10-13T01:11:54.200Z,85.93
2023-10-13T01:14:24.421Z,85.94
2023-10-13T01:16:54.283Z,85.79
2023-10-13T01:19:25.840Z,86.01
2023-10-13T01:22:03.595Z,86.15
2023-10-13T01:24:38.091Z,86.27
2023-10-13T01:27:19.815Z,86.20
2023-10-13T01:29:51.769Z,86.38
2023-10-13T01:32:21.224Z,86.29
2023-10-13T01:34:49.971Z,86.40
2023-10-13T01:37:17.656Z,86.64
2023-10-13T01:39:48.882Z,86.23
2023-10-13T01:42:22.800Z,85.86
2023-10-13T01:44:52.703Z,86.06
2023-10-13T01:47:19.785Z,85.71
2023-10-13T01:50:24.674Z,85.82
2023-10-13T01:53:00.960Z,86.33
2023-10-13T01:55:29.706Z,85.98
2023-10-13T01:57:56.570Z,86.55
2023-10-13T02:00:23.526Z,87.87
2023-10-13T02:02:52.174Z,87.89
2023-10-13T02:05:19.459Z,88.63
2023-10-13T02:07:46.529Z,88.47
2023-10-13T02:10:14.245Z,88.28
2023-10-13T02:12:44.325Z,88.24
2023-10-13T02:15:27.320Z,88.17
2023-10-13T02:17:56.760Z,87.06
2023-10-13T02:20:26.791Z,86.98
2023-10-13T02:22:53.590Z,86.71
2023-10-13T02:25:36.824Z,86.60
2023-10-13T02:28:09.848Z,86.78
2023-10-13T02:30:49.791Z,87.47
2023-10-13T02:33:22.929Z,87.72
2023-10-13T02:35:56.292Z,87.03
2023-10-13T02:38:47.476Z,87.79
2023-10-13T02:41:27.435Z,87.32
2023-10-13T02:43:55.605Z,86.28
2023-10-13T02:46:24.043Z,85.78
2023-10-13T02:49:02.999Z,85.78
2023-10-13T02:51:36.589Z,85.51
2023-10-13T02:54:13.220Z,85.76
2023-10-13T02:56:58.788Z,85.84
2023-10-13T02:59:41.447Z,86.69
2023-10-13T03:02:29.335Z,87.78
2023-10-13T03:05:10.923Z,88.72
2023-10-13T03:07:38.614Z,89.05
2023-10-13T03:10:12.646Z,89.46
2023-10-13T03:12:41.306Z,89.80
2023-10-13T03:15:12.467Z,90.18
2023-10-13T03:17:44.728Z,90.60
2023-10-13T03:20:17.201Z,91.18
2023-10-13T03:22:47.767Z,90.70
2023-10-13T03:25:25.907Z,91.07
2023-10-13T03:27:53.322Z,90.94
2023-10-13T03:30:22.132Z,91.32
2023-10-13T03:32:54.811Z,91.48
2023-10-13T03:35:25.610Z,92.21
2023-10-13T03:37:53.416Z,92.20
2023-10-13T03:40:21.116Z,92.37
2023-10-13T03:43:12.834Z,92.30
2023-10-13T03:45:45.149Z,92.44
2023-10-13T03:48:25.867Z,91.93
2023-10-13T03:51:05.006Z,91.53
2023-10-13T03:53:36.979Z,91.67
2023-10-13T03:56:10.876Z,91.93
2023-10-13T03:58:47.134Z,92.11
2023-10-13T04:01:18.519Z,92.25
2023-10-13T04:04:05.097Z,92.18
2023-10-13T04:06:55.910Z,91.71
2023-10-13T04:09:30.264Z,91.39
2023-10-13T04:12:05.323Z,91.96
2023-10-13T04:14:56.329Z,91.83
2023-10-13T04:17:29.743Z,91.53
2023-10-13T04:20:08.080Z,91.32
2023-10-13T04:22:47.171Z,91.03
2023-10-13T04:25:43.480Z,91.07
2023-10-13T04:28:17.818Z,91.23
2023-10-13T04:30:57.634Z,91.35
2023-10-13T04:33:37.280Z,91.37
2023-10-13T04:36:38.729Z,90.81
2023-10-13T04:39:05.728Z,91.01
2023-10-13T04:41:46.568Z,91.27
2023-10-13T04:44:35.456Z,91.37
2023-10-13T04:47:03.383Z,91.62
2023-10-13T04:49:35.912Z,91.82
2023-10-13T04:52:11.708Z,91.51
2023-10-13T04:54:50.956Z,91.82
2023-10-13T04:57:24.917Z,91.81
2023-10-13T05:00:04.832Z,91.99
2023-10-13T05:02:41.782Z,91.34
2023-10-13T05:05:26.891Z,91.48
2023-10-13T05:08:12.603Z,91.75
2023-10-13T05:10:58.008Z,91.84
2023-10-13T05:13:43.532Z,91.64
2023-10-13T05:16:29.035Z,91.63
2023-10-13T05:19:14.485Z,91.86
2023-10-13T05:21:59.997Z,91.84
2023-10-13T05:24:45.390Z,91.51
2023-10-13T05:27:32.004Z,91.19
2023-10-13T05:30:17.340Z,90.97
2023-10-13T05:33:02.666Z,90.71
2023-10-13T05:35:51.661Z,90.72
2023-10-13T05:38:37.093Z,91.15
2023-10-13T05:41:26.348Z,91.02
2023-10-13T05:44:11.687Z,91.03
2023-10-13T05:46:39.309Z,90.33
2023-10-13T05:49:18.215Z,90.02
2023-10-13T05:51:59.310Z,88.84
2023-10-13T05:54:44.915Z,88.25
2023-10-13T05:57:30.472Z,88.02
2023-10-13T06:00:15.926Z,87.84
2023-10-13T06:03:01.472Z,87.88
2023-10-13T06:05:46.682Z,88.19
2023-10-13T06:08:32.276Z,88.35
2023-10-13T06:11:22.303Z,88.59
2023-10-13T06:14:08.396Z,89.29
2023-10-13T06:16:54.288Z,89.15
2023-10-13T06:19:39.766Z,88.24
2023-10-13T06:22:25.194Z,87.68
2023-10-13T06:25:10.732Z,87.43
2023-10-13T06:27:55.970Z,86.86
2023-10-13T06:30:22.832Z,86.66
2023-10-13T06:32:52.076Z,87.47
2023-10-13T06:35:24.834Z,87.71
2023-10-13T06:37:52.763Z,87.99
2023-10-13T06:40:27.409Z,88.11
2023-10-13T06:42:56.921Z,88.52
2023-10-13T06:45:28.402Z,88.80
2023-10-13T06:47:56.985Z,89.27
2023-10-13T06:50:26.039Z,88.79
2023-10-13T06:52:55.883Z,88.41
2023-10-13T06:55:28.974Z,87.90
2023-10-13T06:58:01.442Z,88.33
2023-10-13T07:00:31.138Z,88.83
2023-10-13T07:03:06.948Z,88.84
2023-10-13T07:05:42.652Z,88.15
2023-10-13T07:08:14.868Z,87.84
2023-10-13T07:11:14.889Z,87.56
2023-10-13T07:13:48.610Z,87.17
2023-10-13T07:16:29.347Z,86.91
2023-10-13T07:18:57.458Z,86.79
2023-10-13T07:21:33.060Z,85.68
2023-10-13T07:24:10.039Z,85.33
2023-10-13T07:26:44.493Z,85.00
2023-10-13T07:29:13.321Z,84.87
2023-10-13T07:31:46.986Z,84.02
2023-10-13T07:34:21.807Z,83.57
2023-10-13T07:36:50.847Z,82.07
2023-10-13T07:39:25.135Z,81.67
2023-10-13T07:42:05.288Z,79.65
2023-10-13T07:44:34.475Z,77.82
2023-10-13T07:47:04.873Z,77.61
2023-10-13T07:49:37.630Z,77.68
2023-10-13T07:52:36.092Z,76.91
2023-10-13T07:55:13.427Z,76.04
2023-10-13T07:57:56.651Z,74.58
2023-10-13T08:00:39.838Z,72.03
2023-10-13T08:03:20.775Z,70.29
2023-10-13T08:06:07.714Z,70.17
2023-10-13T08:08:41.682Z,69.23
2023-10-13T08:11:32.061Z,70.37
2023-10-13T08:14:22.573Z,71.37
2023-10-13T08:17:02.534Z,71.73
2023-10-13T08:19:50.551Z,71.18
2023-10-13T08:22:21.301Z,69.77
2023-10-13T08:24:50.222Z,69.36
2023-10-13T08:27:50.669Z,68.22
2023-10-13T08:30:27.681Z,66.64
2023-10-13T08:33:05.772Z,66.59
2023-10-13T08:35:36.847Z,65.68
2023-10-13T08:38:30.368Z,66.84
2023-10-13T08:41:19.411Z,66.01
2023-10-13T08:43:52.449Z,64.94
2023-10-13T08:46:32.326Z,63.60
2023-10-13T08:49:15.458Z,64.14
2023-10-13T08:52:06.301Z,63.81
2023-10-13T08:54:46.952Z,63.38
2023-10-13T08:57:32.450Z,61.16
2023-10-13T09:00:19.437Z,60.95
2023-10-13T09:03:06.752Z,60.64
2023-10-13T09:06:02.727Z,58.12
2023-10-13T09:08:36.679Z,59.60
2023-10-13T09:11:14.930Z,59.88
2023-10-13T09:13:47.803Z,56.06
2023-10-13T09:16:45.091Z,56.00
2023-10-13T09:19:13.070Z,56.20
2023-10-13T09:21:41.455Z,55.90
2023-10-13T09:24:23.057Z,53.86
2023-10-13T09:26:54.472Z,54.20
2023-10-13T09:29:22.695Z,53.45
2023-10-13T09:32:03.439Z,50.72
2023-10-13T09:34:35.546Z,43.46
2023-10-13T09:37:06.146Z,46.73
2023-10-13T09:39:45.715Z,48.34
2023-10-13T09:42:17.981Z,47.28
2023-10-13T09:44:52.696Z,44.26
2023-10-13T09:47:38.880Z,48.24
2023-10-13T09:50:15.968Z,44.07
2023-10-13T09:52:47.420Z,43.10
2023-10-13T09:55:40.304Z,40.08
2023-10-13T09:58:12.696Z,47.10
2023-10-13T10:01:11.586Z,37.00
2023-10-13T10:03:53.437Z,38.38
2023-10-13T10:06:40.161Z,42.40
2023-10-13T10:09:16.002Z,40.31
2023-10-13T10:12:09.237Z,42.25
2023-10-13T10:15:21.587Z,41.13
2023-10-13T10:17:51.105Z,35.44
2023-10-13T10:20:45.889Z,43.10
2023-10-13T10:23:45.304Z,35.90
2023-10-13T10:26:24.397Z,35.40
2023-10-13T10:28:51.566Z,34.33
2023-10-13T10:31:20.796Z,37.94
2023-10-13T10:33:51.723Z,37.79
2023-10-13T10:36:30.963Z,33.79
2023-10-13T10:39:02.416Z,35.02
2023-10-13T10:41:40.026Z,30.99
2023-10-13T10:44:17.753Z,29.18
2023-10-13T10:46:58.691Z,36.26
2023-10-13T10:49:29.327Z,29.99
2023-10-13T10:52:05.610Z,29.93
2023-10-13T10:54:35.649Z,28.82
2023-10-13T10:57:12.065Z,30.90
2023-10-13T10:59:40.200Z,27.37
2023-10-13T11:02:09.909Z,26.79
2023-10-13T11:04:57.618Z,31.09
2023-10-13T11:07:25.357Z,34.17
2023-10-13T11:10:07.552Z,36.45
2023-10-13T11:12:35.514Z,25.81
2023-10-13T11:15:34.835Z,27.13
2023-10-13T11:18:06.963Z,28.14
2023-10-13T11:20:44.853Z,24.34
2023-10-13T11:23:13.741Z,24.83
2023-10-13T11:25:40.912Z,23.27
2023-10-13T11:28:28.929Z,24.10
2023-10-13T11:31:00.731Z,24.19
2023-10-13T11:33:29.828Z,22.20
2023-10-13T11:35:58.419Z,22.77
2023-10-13T11:38:41.838Z,22.02
2023-10-13T11:41:09.825Z,23.30
2023-10-13T11:43:43.678Z,22.59
2023-10-13T11:46:11.847Z,22.21
2023-10-13T11:48:42.626Z,25.06
2023-10-13T11:51:18.648Z,21.81
2023-10-13T11:53:46.613Z,21.46
2023-10-13T11:56:13.526Z,21.49
2023-10-13T11:58:42.300Z,20.95
2023-10-13T12:01:14.812Z,20.46
2023-10-13T12:04:03.821Z,20.83
2023-10-13T12:06:36.058Z,20.37
2023-10-13T12:09:19.917Z,19.78
2023-10-13T12:11:52.105Z,20.26
2023-10-13T12:14:23.295Z,20.35
2023-10-13T12:16:54.708Z,21.37
2023-10-13T12:19:28.598Z,20.36
2023-10-13T12:21:56.489Z,19.28
2023-10-13T12:24:36.761Z,20.00
2023-10-13T12:27:20.214Z,20.09
2023-10-13T12:29:53.106Z,19.27
2023-10-13T12:32:26.674Z,19.39
2023-10-13T12:35:02.853Z,19.70
2023-10-13T12:37:51.015Z,19.15
2023-10-13T12:40:39.529Z,19.42
2023-10-13T12:43:25.338Z,19.26
2023-10-13T12:46:12.115Z,20.04
2023-10-13T12:48:59.357Z,19.79
2023-10-13T12:51:32.185Z,20.80
2023-10-13T12:54:16.974Z,21.55
2023-10-13T12:56:44.451Z,22.22
2023-10-13T12:59:14.648Z,23.16
2023-10-13T13:01:45.373Z,26.59
2023-10-13T13:04:22.122Z,23.73
2023-10-13T13:06:54.926Z,23.92
2023-10-13T13:09:27.784Z,24.38
2023-10-13T13:11:59.533Z,24.28
2023-10-13T13:14:30.773Z,31.26
2023-10-13T13:17:07.299Z,26.03
2023-10-13T13:19:42.547Z,25.48
2023-10-13T13:22:13.324Z,23.42
2023-10-13T13:24:45.891Z,22.60
2023-10-13T13:27:23.418Z,21.63
2023-10-13T13:29:50.476Z,21.55
2023-10-13T13:32:24.921Z,21.44
2023-10-13T13:35:08.990Z,21.06
2023-10-13T13:37:38.517Z,20.72
2023-10-13T13:40:16.225Z,20.87
2023-10-13T13:42:44.691Z,20.29
2023-10-13T13:45:23.166Z,20.66
2023-10-13T13:47:54.701Z,20.60
2023-10-13T13:50:31.145Z,20.88
2023-10-13T13:52:59.407Z,25.10
2023-10-13T13:55:32.346Z,21.81
2023-10-13T13:57:59.710Z,21.39
2023-10-13T14:00:38.754Z,21.78
2023-10-13T14:03:14.153Z,21.68
2023-10-13T14:05:44.762Z,21.77
2023-10-13T14:08:16.397Z,22.92
2023-10-13T14:11:02.371Z,23.96
2023-10-13T14:13:47.768Z,24.05
2023-10-13T14:16:21.559Z,24.94
2023-10-13T14:18:51.737Z,26.46
2023-10-13T14:21:20.027Z,25.34
2023-10-13T14:23:54.651Z,25.24
2023-10-13T14:26:26.304Z,26.30
2023-10-13T14:29:02.343Z,25.72
2023-10-13T14:31:31.039Z,27.42
2023-10-13T14:33:58.359Z,25.62
2023-10-13T14:36:30.330Z,25.51
2023-10-13T14:38:57.685Z,25.89
2023-10-13T14:41:24.844Z,25.93
2023-10-13T14:43:52.077Z,26.70
2023-10-13T14:46:26.885Z,28.78
2023-10-13T14:48:54.892Z,25.77
2023-10-13T14:51:22.069Z,25.71
2023-10-13T14:53:52.587Z,25.80
2023-10-13T14:56:21.185Z,25.61
2023-10-13T14:58:48.165Z,26.75
2023-10-13T15:01:16.353Z,26.34
2023-10-13T15:03:48.683Z,27.19
2023-10-13T15:06:27.475Z,26.58
2023-10-13T15:08:57.789Z,26.01
2023-10-13T15:11:41.930Z,25.59
2023-10-13T15:14:14.519Z,26.55
2023-10-13T15:16:44.212Z,26.50
2023-10-13T15:19:11.579Z,26.28
2023-10-13T15:21:41.116Z,25.99
2023-10-13T15:24:24.738Z,26.80
2023-10-13T15:26:58.321Z,26.11
2023-10-13T15:29:31.380Z,26.49
2023-10-13T15:32:01.277Z,26.76
2023-10-13T15:34:29.747Z,27.00
2023-10-13T15:36:58.964Z,27.42
2023-10-13T15:39:29.580Z,27.74
2023-10-13T15:42:00.659Z,26.63
2023-10-13T15:44:31.328Z,26.52
2023-10-13T15:49:35.184Z,27.33
2023-10-13T15:52:02.664Z,27.84
2023-10-13T15:54:29.613Z,27.68
2023-10-13T15:56:56.676Z,28.29
2023-10-13T15:59:26.795Z,28.89
2023-10-13T16:01:58.897Z,28.54
2023-10-13T16:04:26.687Z,29.34
2023-10-13T16:06:53.860Z,29.83
2023-10-13T16:09:25.227Z,30.27
2023-10-13T16:11:54.134Z,30.42
2023-10-13T16:14:22.333Z,31.09
2023-10-13T16:16:53.887Z,31.78
2023-10-13T16:19:23.022Z,31.56
2023-10-13T16:21:55.709Z,33.64
2023-10-13T16:24:23.449Z,34.65
2023-10-13T16:26:56.728Z,34.58
2023-10-13T16:29:23.889Z,34.41
2023-10-13T16:31:50.933Z,34.85
2023-10-13T16:34:19.394Z,34.28
2023-10-13T16:36:49.142Z,35.80
2023-10-13T16:39:17.107Z,37.19
2023-10-13T16:41:48.275Z,35.96
2023-10-13T16:44:16.785Z,37.13
2023-10-13T16:46:44.016Z,36.61
2023-10-13T16:49:12.469Z,36.89
2023-10-13T16:51:39.681Z,37.88
2023-10-13T16:54:09.490Z,39.73
2023-10-13T16:56:39.853Z,41.12
2023-10-13T16:59:08.048Z,38.93
2023-10-13T17:01:35.472Z,38.60
2023-10-13T17:04:05.731Z,38.75
2023-10-13T17:06:34.032Z,39.24
2023-10-13T17:09:00.944Z,39.38
2023-10-13T17:11:27.909Z,39.20
2023-10-13T17:13:54.735Z,39.84
2023-10-13T17:16:24.007Z,39.21
2023-10-13T17:18:53.040Z,38.85
2023-10-13T17:21:27.109Z,37.80
2023-10-13T17:23:54.878Z,37.52
2023-10-13T17:26:27.575Z,38.08
2023-10-13T17:29:03.788Z,37.67
2023-10-13T17:31:34.134Z,37.36
2023-10-13T17:34:01.787Z,37.35
2023-10-13T17:36:30.356Z,37.53
2023-10-13T17:38:57.827Z,37.51
2023-10-13T17:41:25.663Z,37.89
2023-10-13T17:43:52.640Z,37.64
2023-10-13T17:46:22.181Z,38.33
2023-10-13T17:48:49.798Z,39.06
2023-10-13T17:51:16.862Z,40.49
2023-10-13T17:53:43.846Z,41.44
2023-10-13T17:56:17.147Z,42.19
2023-10-13T17:58:45.663Z,42.42
2023-10-13T18:01:19.361Z,42.24
2023-10-13T18:03:53.049Z,41.19
2023-10-13T18:06:23.641Z,42.00
2023-10-13T18:08:55.167Z,42.21
2023-10-13T18:11:25.128Z,41.92
2023-10-13T18:13:53.738Z,43.00
2023-10-13T18:16:25.905Z,43.18
2023-10-13T18:18:56.794Z,44.31
2023-10-13T18:21:24.702Z,44.26
2023-10-13T18:23:54.184Z,44.97
2023-10-13T18:26:21.219Z,44.31
2023-10-13T18:28:51.897Z,44.38
2023-10-13T18:31:19.237Z,44.37
2023-10-13T18:33:46.504Z,44.87
2023-10-13T18:36:25.706Z,45.03
2023-10-13T18:38:52.942Z,45.47
2023-10-13T18:41:20.806Z,46.32
2023-10-13T18:43:48.641Z,45.80
2023-10-13T18:46:17.488Z,46.49
2023-10-13T18:48:46.526Z,46.79
2023-10-13T18:51:19.304Z,47.03
2023-10-13T18:53:49.478Z,47.30
2023-10-13T18:56:22.064Z,46.64
2023-10-13T18:58:55.897Z,48.35
2023-10-13T19:01:30.803Z,49.20
2023-10-13T19:04:09.734Z,49.72
2023-10-13T19:06:36.747Z,50.67
2023-10-13T19:09:07.029Z,50.48
2023-10-13T19:11:37.631Z,49.96
2023-10-13T19:14:10.920Z,49.99
2023-10-13T19:16:42.244Z,50.54
2023-10-13T19:19:09.389Z,50.75
2023-10-13T19:21:37.865Z,51.12
2023-10-13T19:24:06.969Z,51.57
2023-10-13T19:26:36.785Z,52.44
2023-10-13T19:29:07.180Z,52.62
2023-10-13T19:31:37.574Z,52.51
2023-10-13T19:34:05.976Z,52.60
2023-10-13T19:36:34.320Z,52.11
2023-10-13T19:39:07.594Z,52.61
2023-10-13T19:41:36.953Z,53.06
2023-10-13T19:44:05.603Z,53.62
2023-10-13T19:46:37.321Z,53.46
2023-10-13T19:49:06.014Z,53.33
2023-10-13T19:51:35.101Z,53.85
2023-10-13T19:54:04.158Z,53.81
2023-10-13T19:56:33.344Z,53.76
2023-10-13T19:59:03.675Z,53.84
2023-10-13T20:01:34.552Z,53.63
2023-10-13T20:04:08.756Z,54.00
2023-10-13T20:09:26.179Z,54.04
2023-10-13T20:11:53.916Z,53.09
2023-10-13T20:14:22.101Z,53.22
2023-10-13T20:16:52.283Z,53.25
2023-10-13T20:19:19.518Z,53.43
2023-10-13T20:21:48.045Z,53.34
2023-10-13T20:24:16.473Z,53.28
2023-10-13T20:26:43.632Z,52.50
2023-10-13T20:29:19.431Z,53.21
2023-10-13T20:31:50.865Z,52.83
2023-10-13T20:34:24.284Z,52.77
2023-10-13T20:36:55.791Z,53.43
2023-10-13T20:39:25.923Z,53.32
2023-10-13T20:41:54.301Z,54.22
2023-10-13T20:44:28.606Z,54.90
2023-10-13T20:46:58.693Z,55.22
2023-10-13T20:49:27.610Z,54.65
2023-10-13T20:51:54.959Z,53.69
2023-10-13T20:54:22.507Z,53.72
2023-10-13T20:56:49.315Z,53.87
2023-10-13T20:59:16.563Z,54.38
2023-10-13T21:01:44.075Z,54.49
2023-10-13T21:04:11.330Z,54.61
2023-10-13T21:06:41.659Z,53.82
2023-10-13T21:09:13.825Z,54.13
2023-10-13T21:11:41.891Z,53.99
2023-10-13T21:14:09.845Z,53.79
2023-10-13T21:16:36.806Z,50.96
2023-10-13T21:19:06.177Z,49.64
2023-10-13T21:21:35.060Z,45.83
2023-10-13T21:24:05.605Z,43.66
2023-10-13T21:26:32.383Z,41.94
2023-10-13T21:28:59.311Z,41.85
2023-10-13T21:31:26.503Z,41.45
2023-10-13T21:33:55.664Z,40.88
2023-10-13T21:36:27.329Z,40.80
2023-10-13T21:38:58.955Z,41.42
2023-10-13T21:41:26.383Z,40.08
2023-10-13T21:43:55.455Z,39.45
2023-10-13T21:46:25.280Z,41.67
2023-10-13T21:48:53.458Z,43.69
2023-10-13T21:51:25.937Z,43.54
2023-10-13T21:53:53.871Z,45.60
2023-10-13T21:56:25.311Z,45.46
2023-10-13T21:58:52.753Z,43.73
2023-10-13T22:01:29.090Z,42.63
2023-10-13T22:04:11.544Z,42.27
2023-10-13T22:06:42.081Z,41.95
2023-10-13T22:09:10.653Z,41.58
2023-10-13T22:11:41.213Z,41.43
2023-10-13T22:14:13.565Z,41.61
2023-10-13T22:16:40.476Z,41.48
2023-10-13T22:19:07.564Z,41.56
2023-10-13T22:21:34.758Z,41.05
2023-10-13T22:24:02.158Z,40.85
2023-10-13T22:26:32.929Z,41.28
2023-10-13T22:29:00.176Z,40.93
2023-10-13T22:31:27.926Z,41.01
2023-10-13T22:33:56.243Z,41.44
2023-10-13T22:36:23.858Z,41.09
2023-10-13T22:38:59.939Z,41.31
2023-10-13T22:41:34.897Z,41.71
2023-10-13T22:44:07.078Z,41.74
2023-10-13T22:46:34.173Z,42.39
2023-10-13T22:49:01.089Z,42.46
2023-10-13T22:51:28.419Z,43.09
2023-10-13T22:53:55.361Z,43.16
2023-10-13T22:56:22.427Z,44.10
2023-10-13T22:58:49.687Z,43.96
2023-10-13T23:01:19.370Z,44.08
2023-10-13T23:03:57.496Z,45.21
2023-10-13T23:06:35.246Z,46.04
2023-10-13T23:09:23.544Z,46.91
2023-10-13T23:11:50.635Z,47.45
2023-10-13T23:14:19.523Z,49.14
2023-10-13T23:16:51.200Z,49.88
2023-10-13T23:19:20.362Z,49.75
2023-10-13T23:21:48.927Z,51.05
2023-10-13T23:24:16.162Z,51.53
2023-10-13T23:26:43.219Z,51.47
2023-10-13T23:29:10.985Z,51.19
2023-10-13T23:31:39.022Z,52.24
2023-10-13T23:34:07.111Z,53.26
2023-10-13T23:36:35.445Z,54.34
2023-10-13T23:39:11.094Z,57.42
2023-10-13T23:41:42.682Z,59.35
2023-10-13T23:44:18.388Z,60.46
2023-10-13T23:46:45.323Z,61.82
2023-10-13T23:49:20.135Z,63.91
2023-10-13T23:51:54.470Z,64.35
2023-10-13T23:54:22.031Z,65.58
2023-10-13T23:56:49.322Z,65.43
2023-10-13T23:59:28.332Z,66.67
